Date,TemperatureHighF,TemperatureAvgF,TemperatureLowF,DewpointHighF,DewpointAvgF,DewpointLowF,HumidityHigh,HumidityAvg,HumidityLow,PressureMaxIn,PressureMinIn,WindSpeedMaxMPH,WindSpeedAvgMPH,GustSpeedMaxMPH,PrecipitationSumIn
2013-1-1,57.4,36.9,26.5,-99.9,-99.9,-99.9,0,0,100,30.15,30.09,10,1,10,0.00
2013-1-2,61.4,36.0,22.3,-99.9,-99.9,-99.9,0,0,100,30.15,30.05,9,1,9,0.01
2013-1-3,58.9,36.4,24.2,-99.9,-99.9,-99.9,0,0,100,30.17,30.06,10,1,10,0.01
2013-1-4,61.2,38.1,25.4,-99.9,-99.9,-99.9,0,0,100,30.18,30.10,9,1,9,0.00
2013-1-5,59.9,40.4,28.5,-99.9,-99.9,-99.9,0,0,100,30.17,29.99,9,1,10,0.01
2013-1-6,50.3,41.0,30.4,-99.9,-99.9,-99.9,0,0,100,30.08,29.98,6,0,7,0.07
2013-1-7,59.5,39.1,27.5,-99.9,-99.9,-99.9,0,0,100,30.14,30.03,9,1,9,0.00
2013-1-8,59.7,41.2,31.4,-99.9,-99.9,-99.9,0,0,100,30.14,30.06,6,1,11,0.00
2013-1-9,53.1,41.8,32.6,-99.9,-99.9,-99.9,0,0,100,30.09,29.81,16,2,16,0.54
2013-1-10,51.9,35.3,24.9,-99.9,-99.9,-99.9,0,0,100,30.04,29.91,11,1,11,0.01
2013-1-11,51.4,31.8,21.2,-99.9,-99.9,-99.9,0,0,100,30.11,30.01,8,1,9,0.01
2013-1-12,51.2,30.2,16.9,-99.9,-99.9,-99.9,0,0,100,30.11,30.03,10,1,11,0.00
2013-1-13,51.8,31.4,16.2,-99.9,-99.9,-99.9,0,0,100,30.13,30.05,15,2,17,0.01
2013-1-14,54.1,34.5,21.4,-99.9,-99.9,-99.9,0,0,100,30.28,30.09,11,1,11,0.00
2013-1-15,53.5,33.6,21.4,-99.9,-99.9,-99.9,0,0,100,30.38,30.28,9,1,9,0.00
2013-1-16,64.3,37.4,23.4,-99.9,-99.9,-99.9,0,0,100,30.34,30.20,10,1,10,0.01
2013-1-17,69.0,39.1,21.2,-99.9,-99.9,-99.9,0,0,100,30.21,30.10,10,1,10,0.00
2013-1-18,72.3,41.6,24.0,-99.9,-99.9,-99.9,0,0,100,30.17,30.09,10,1,11,0.00
2013-1-19,71.8,41.4,24.1,-99.9,-99.9,-99.9,0,0,100,30.20,30.11,10,0,10,0.01
2013-1-20,70.7,40.4,23.2,-99.9,-99.9,-99.9,0,0,100,30.18,30.07,10,1,10,0.00
2013-1-21,72.5,42.6,25.6,-99.9,-99.9,-99.9,0,0,100,30.13,30.06,13,1,13,0.00
2013-1-22,73.2,44.7,25.9,-99.9,-99.9,-99.9,0,0,100,30.10,29.98,13,1,14,0.00
2013-1-23,65.0,47.9,35.6,-99.9,-99.9,-99.9,0,0,100,30.04,29.93,11,1,11,0.06
2013-1-24,60.2,53.0,47.2,-99.9,-99.9,-99.9,0,0,100,30.12,30.00,12,1,12,0.02
2013-1-25,72.3,54.7,48.6,-99.9,-99.9,-99.9,0,0,100,30.12,29.98,12,0,12,0.02
2013-1-26,62.9,48.3,39.9,-99.9,-99.9,-99.9,0,0,100,29.98,29.87,13,2,14,0.00
2013-1-27,54.7,41.8,32.4,-99.9,-99.9,-99.9,0,0,100,30.05,29.93,12,1,12,0.04
2013-1-28,59.2,39.1,26.8,-99.9,-99.9,-99.9,0,0,100,30.19,30.03,15,2,16,0.00
2013-1-29,60.9,41.9,30.8,-99.9,-99.9,-99.9,0,0,100,30.24,30.16,12,2,12,0.00
2013-1-30,66.5,44.5,29.2,-99.9,-99.9,-99.9,0,0,100,30.26,30.19,12,1,12,0.00
2013-1-31,71.0,42.7,27.6,-99.9,-99.9,-99.9,0,0,100,30.24,30.14,8,0,8,0.01
2013-2-1,74.8,45.7,27.9,-99.9,-99.9,-99.9,0,0,100,30.17,30.08,9,1,9,0.01
2013-2-2,70.3,46.3,32.5,-99.9,-99.9,-99.9,0,0,100,30.22,30.14,9,0,9,0.01
2013-2-3,70.3,43.7,28.2,-99.9,-99.9,-99.9,0,0,100,30.16,30.05,10,1,10,0.00
2013-2-4,72.8,45.9,30.1,-99.9,-99.9,-99.9,0,0,100,30.10,30.00,12,1,12,0.01
2013-2-5,61.3,42.5,30.0,-99.9,-99.9,-99.9,0,0,100,30.07,29.96,11,1,11,0.00
2013-2-6,65.8,41.1,26.9,-99.9,-99.9,-99.9,0,0,100,30.09,30.02,10,1,10,0.01
2013-2-7,49.4,42.5,35.3,-99.9,-99.9,-99.9,0,0,100,30.08,29.91,15,2,15,0.09
2013-2-8,59.2,39.8,26.7,-99.9,-99.9,-99.9,0,0,100,29.91,29.82,16,2,16,0.00
2013-2-9,59.0,37.6,22.7,-99.9,-99.9,-99.9,0,0,100,30.03,29.88,12,1,12,0.00
2013-2-10,62.4,39.9,22.2,-99.9,-99.9,-99.9,0,0,100,30.05,29.94,17,2,17,0.01
2013-2-11,68.7,41.7,26.0,-99.9,-99.9,-99.9,0,0,100,30.19,30.02,14,1,14,0.01
2013-2-12,67.0,40.8,25.4,-99.9,-99.9,-99.9,0,0,100,30.30,30.18,10,1,10,0.01
2013-2-13,68.0,43.1,28.2,-99.9,-99.9,-99.9,0,0,100,30.26,30.15,11,1,11,0.00
2013-2-14,74.9,45.5,26.8,-99.9,-99.9,-99.9,0,0,100,30.19,30.12,12,1,12,0.00
2013-2-15,74.8,46.6,27.7,-99.9,-99.9,-99.9,0,0,100,30.24,30.18,10,1,12,0.01
2013-2-16,71.5,47.7,29.0,-99.9,-99.9,-99.9,0,0,100,30.23,30.00,11,1,11,0.00
2013-2-17,71.5,46.1,28.8,-99.9,-99.9,-99.9,0,0,100,30.00,29.92,10,1,10,0.00
2013-2-18,68.0,46.3,30.2,-99.9,-99.9,-99.9,0,0,100,29.96,29.85,18,3,18,0.00
2013-2-19,42.5,38.2,29.5,-99.9,-99.9,-99.9,0,0,100,29.87,29.67,19,3,19,0.56
2013-2-20,61.7,39.1,23.8,-99.9,-99.9,-99.9,0,0,100,29.97,29.74,16,2,16,0.01
2013-2-21,63.8,42.1,28.5,-99.9,-99.9,-99.9,0,0,100,30.10,29.96,15,2,21,0.00
2013-2-22,65.3,43.8,26.2,-99.9,-99.9,-99.9,0,0,100,30.18,30.09,13,1,13,0.00
2013-2-23,60.8,46.9,30.2,-99.9,-99.9,-99.9,0,0,100,30.16,30.06,18,2,21,0.00
2013-2-24,70.0,43.5,25.4,-99.9,-99.9,-99.9,0,0,100,30.20,30.10,12,1,12,0.00
2013-2-25,69.2,45.2,30.6,-99.9,-99.9,-99.9,0,0,100,30.22,30.13,14,2,14,0.00
2013-2-26,70.1,45.7,24.2,-99.9,-99.9,-99.9,0,0,100,30.18,30.08,21,2,21,0.00
2013-2-27,71.1,47.1,25.9,-99.9,-99.9,-99.9,0,0,100,30.32,30.16,10,2,10,0.00
2013-2-28,75.3,51.7,33.7,-99.9,-99.9,-99.9,0,0,100,30.39,30.30,14,1,14,0.00
2013-3-1,75.9,51.0,31.2,-99.9,-99.9,-99.9,0,0,100,30.39,30.24,7,1,10,0.00
2013-3-2,77.4,57.3,38.5,-99.9,-99.9,-99.9,0,0,100,30.25,30.05,15,2,16,0.00
2013-3-3,64.7,52.7,46.5,-99.9,-99.9,-99.9,0,0,100,30.06,29.99,11,1,11,0.13
2013-3-4,72.5,50.8,36.1,-99.9,-99.9,-99.9,0,0,100,30.07,29.99,11,2,11,0.00
2013-3-5,62.0,48.1,37.4,-99.9,-99.9,-99.9,0,0,100,30.00,29.80,15,2,17,0.07
2013-3-6,53.2,44.2,35.7,-99.9,-99.9,-99.9,0,0,100,30.02,29.80,23,4,23,0.62
2013-3-7,59.6,45.1,34.3,-99.9,-99.9,-99.9,0,0,100,29.96,29.83,12,2,12,0.01
2013-3-8,67.0,47.9,30.0,-99.9,-99.9,-99.9,0,0,100,29.98,29.77,13,2,13,0.00
2013-3-9,69.3,49.4,31.0,-99.9,-99.9,-99.9,0,0,100,30.27,29.97,18,2,18,0.00
2013-3-10,66.7,46.8,26.9,-99.9,-99.9,-99.9,0,0,100,30.30,30.23,10,1,11,0.00
2013-3-11,75.8,51.9,33.7,-99.9,-99.9,-99.9,0,0,100,30.24,30.10,10,1,11,0.00
2013-3-12,79.4,55.9,36.3,-99.9,-99.9,-99.9,0,0,100,30.14,30.06,10,1,10,0.00
2013-3-13,82.8,58.1,39.9,-99.9,-99.9,-99.9,0,0,100,30.15,30.09,9,1,11,0.00
2013-3-14,84.8,60.0,40.9,-99.9,-99.9,-99.9,0,0,100,30.14,30.08,11,1,11,0.00
2013-3-15,78.0,56.5,40.9,-99.9,-99.9,-99.9,0,0,100,30.11,30.02,11,1,11,0.00
2013-3-16,80.8,54.4,36.4,-99.9,-99.9,-99.9,0,0,100,30.06,29.99,11,1,11,0.00
2013-3-17,75.1,51.2,33.2,-99.9,-99.9,-99.9,0,0,100,30.08,30.01,12,1,12,0.00
2013-3-18,76.6,52.0,32.2,-99.9,-99.9,-99.9,0,0,100,30.08,30.01,11,1,12,0.00
2013-3-19,71.9,56.3,41.8,-99.9,-99.9,-99.9,0,0,100,30.11,30.02,14,1,14,0.23
2013-3-20,56.4,52.2,49.4,-99.9,-99.9,-99.9,0,0,100,30.09,30.05,15,2,15,1.08
2013-3-21,66.8,51.6,38.5,-99.9,-99.9,-99.9,0,0,100,30.07,29.97,14,1,15,0.95
2013-3-22,67.1,45.2,27.1,-99.9,-99.9,-99.9,0,0,100,30.04,29.97,23,2,23,0.00
2013-3-23,71.4,47.0,26.4,-99.9,-99.9,-99.9,0,0,100,30.08,30.01,11,1,11,0.00
2013-3-24,76.6,53.4,33.6,-99.9,-99.9,-99.9,0,0,100,30.06,29.96,13,2,13,0.00
2013-3-25,74.8,55.8,38.3,-99.9,-99.9,-99.9,0,0,100,29.98,29.88,16,2,16,0.00
2013-3-26,71.9,55.6,39.8,-99.9,-99.9,-99.9,0,0,100,29.96,29.90,11,2,11,0.00
2013-3-27,75.8,57.9,46.7,-99.9,-99.9,-99.9,0,0,100,30.01,29.91,15,3,15,0.00
2013-3-28,67.5,55.5,46.0,-99.9,-99.9,-99.9,0,0,100,30.09,30.00,9,1,13,0.02
2013-3-29,82.3,60.0,39.8,-99.9,-99.9,-99.9,0,0,100,30.09,30.03,11,2,12,0.00
2013-3-30,82.7,61.6,42.9,-99.9,-99.9,-99.9,0,0,100,30.06,29.97,13,2,14,0.00
2013-3-31,67.7,55.9,49.2,-99.9,-99.9,-99.9,0,0,100,30.08,29.98,19,2,19,0.77
2013-4-1,69.2,54.5,45.6,-99.9,-99.9,-99.9,0,0,100,30.14,30.04,10,2,11,0.70
2013-4-2,76.5,55.2,40.8,-99.9,-99.9,-99.9,0,0,100,30.13,30.07,15,2,15,0.00
2013-4-3,79.1,58.0,40.8,-99.9,-99.9,-99.9,0,0,100,30.12,29.99,11,2,11,0.70
2013-4-4,59.5,53.6,48.7,-99.9,-99.9,-99.9,0,0,100,30.09,29.96,16,2,17,0.70
2013-4-5,69.2,56.3,49.4,-99.9,-99.9,-99.9,0,0,100,30.14,30.08,14,1,14,0.70
2013-4-6,65.5,55.0,48.1,-99.9,-99.9,-99.9,0,0,100,30.15,30.08,11,2,12,0.00
2013-4-7,72.1,56.7,46.1,-99.9,-99.9,-99.9,0,0,100,30.11,29.76,19,4,20,0.70
2013-4-8,65.8,52.1,37.6,-99.9,-99.9,-99.9,0,0,100,29.99,29.71,29,4,29,0.70
2013-4-9,72.3,51.6,30.3,-99.9,-99.9,-99.9,0,0,100,30.11,29.99,22,2,22,0.00
2013-4-10,84.8,61.0,37.1,-99.9,-99.9,-99.9,0,0,100,30.16,29.99,13,2,15,0.00
2013-4-11,77.8,60.1,44.6,-99.9,-99.9,-99.9,0,0,100,30.00,29.82,15,2,16,0.00
2013-4-12,81.8,58.2,37.4,-99.9,-99.9,-99.9,0,0,100,29.88,29.80,8,1,11,0.00
2013-4-13,81.5,61.0,43.2,-99.9,-99.9,-99.9,0,0,100,29.87,29.78,12,2,12,0.00
2013-4-14,73.6,56.1,37.7,-99.9,-99.9,-99.9,0,0,100,29.86,29.73,13,2,13,0.00
2013-4-15,65.5,49.7,37.2,-99.9,-99.9,-99.9,0,0,100,29.87,29.78,11,1,12,0.00
2013-4-16,66.6,47.0,29.2,-99.9,-99.9,-99.9,0,0,100,30.13,29.86,24,3,24,0.00
2013-4-17,71.0,47.9,26.6,-99.9,-99.9,-99.9,0,0,100,30.22,30.13,21,3,21,0.00
2013-4-18,77.8,55.1,33.5,-99.9,-99.9,-99.9,0,0,100,30.23,30.17,14,2,14,0.00
2013-4-19,82.1,58.2,37.0,-99.9,-99.9,-99.9,0,0,100,30.22,30.07,13,1,14,0.00
2013-4-20,82.1,61.4,40.9,-99.9,-99.9,-99.9,0,0,100,30.09,29.98,16,2,16,0.00
2013-4-21,86.7,62.8,41.1,-99.9,-99.9,-99.9,0,0,100,30.03,29.97,13,1,13,0.00
2013-4-22,87.7,65.2,43.2,-99.9,-99.9,-99.9,0,0,100,30.00,29.88,14,2,15,0.00
2013-4-23,89.0,66.4,41.7,-99.9,-99.9,-99.9,0,0,100,29.93,29.86,15,2,15,0.00
2013-4-24,89.6,64.4,39.3,-99.9,-99.9,-99.9,0,0,100,29.90,29.79,19,2,19,0.00
2013-4-25,80.1,58.0,37.0,-99.9,-99.9,-99.9,0,0,100,30.09,29.88,13,1,13,0.00
2013-4-26,82.0,61.2,40.4,-99.9,-99.9,-99.9,0,0,100,30.19,30.08,10,1,10,0.00
2013-4-27,89.7,66.1,44.7,-99.9,-99.9,-99.9,0,0,100,30.20,30.07,12,1,12,0.00
2013-4-28,92.6,68.7,47.4,-99.9,-99.9,-99.9,0,0,100,30.08,29.92,13,2,13,0.00
2013-4-29,91.6,68.2,46.8,-99.9,-99.9,-99.9,0,0,100,29.92,29.78,11,1,11,0.00
2013-4-30,86.6,66.0,45.3,-99.9,-99.9,-99.9,0,0,100,29.88,29.76,16,2,16,0.00
2013-5-1,93.0,68.0,39.7,-99.9,-99.9,-99.9,0,0,100,30.13,29.88,14,2,14,0.00
2013-5-2,94.6,71.6,53.3,-99.9,-99.9,-99.9,0,0,100,30.18,30.10,13,2,13,0.00
2013-5-3,93.4,70.7,50.2,-99.9,-99.9,-99.9,0,0,100,30.12,29.83,12,2,13,0.00
2013-5-4,92.0,67.9,43.0,-99.9,-99.9,-99.9,0,0,100,29.85,29.57,15,2,15,0.00
2013-5-5,76.9,60.3,45.0,-99.9,-99.9,-99.9,0,0,100,29.83,29.56,16,2,16,0.00
2013-5-6,69.2,57.8,52.2,-99.9,-99.9,-99.9,0,0,100,29.94,29.82,8,1,9,0.56
2013-5-7,67.5,58.3,51.9,-99.9,-99.9,-99.9,0,0,100,30.02,29.94,9,1,9,0.00
2013-5-8,74.1,61.9,53.4,-99.9,-99.9,-99.9,0,0,100,30.10,30.00,10,1,11,0.02
2013-5-9,80.2,63.8,45.8,-99.9,-99.9,-99.9,0,0,100,30.12,30.05,13,1,13,0.00
2013-5-10,87.7,69.6,52.0,-99.9,-99.9,-99.9,0,0,100,30.14,30.07,14,2,14,0.00
2013-5-11,93.2,73.9,55.9,-99.9,-99.9,-99.9,0,0,100,30.12,30.07,9,1,10,0.00
2013-5-12,96.7,75.2,57.6,-99.9,-99.9,-99.9,0,0,100,30.12,30.02,14,2,14,0.00
2013-5-13,95.5,73.8,50.2,-99.9,-99.9,-99.9,0,0,100,30.06,29.94,13,2,13,0.00
2013-5-14,92.1,71.3,49.8,-99.9,-99.9,-99.9,0,0,100,29.94,29.87,15,2,17,0.00
2013-5-15,84.3,66.6,51.2,-99.9,-99.9,-99.9,0,0,100,29.99,29.90,15,2,15,0.00
2013-5-16,73.3,60.6,51.3,-99.9,-99.9,-99.9,0,0,100,29.98,29.90,16,2,17,0.01
2013-5-17,76.3,59.3,42.7,-99.9,-99.9,-99.9,0,0,100,30.03,29.91,13,2,13,0.00
2013-5-18,82.0,61.2,39.6,-99.9,-99.9,-99.9,0,0,100,30.09,30.01,14,1,14,0.00
2013-5-19,86.1,65.6,45.2,-99.9,-99.9,-99.9,0,0,100,30.08,29.98,23,2,23,0.00
2013-5-20,92.3,66.8,41.2,-99.9,-99.9,-99.9,0,0,100,29.99,29.92,12,1,12,0.00
2013-5-21,83.1,67.4,49.8,-99.9,-99.9,-99.9,0,0,100,29.92,29.83,16,3,19,0.00
2013-5-22,71.8,53.0,32.4,-99.9,-99.9,-99.9,0,0,100,29.93,29.86,15,1,21,0.00
2013-5-23,73.8,55.1,34.4,-99.9,-99.9,-99.9,0,0,100,29.97,29.85,14,2,14,0.00
2013-5-24,83.1,59.6,37.5,-99.9,-99.9,-99.9,0,0,100,29.95,29.90,12,2,12,0.01
2013-5-25,81.3,61.0,38.9,-99.9,-99.9,-99.9,0,0,100,29.99,29.91,13,2,14,0.00
2013-5-26,76.3,59.6,42.1,-99.9,-99.9,-99.9,0,0,100,30.08,29.97,16,2,16,0.00
2013-5-27,65.3,56.8,46.0,-99.9,-99.9,-99.9,0,0,100,30.08,29.98,11,2,11,0.03
2013-5-28,77.2,63.0,54.1,-99.9,-99.9,-99.9,0,0,100,29.99,29.89,12,1,12,0.09
2013-5-29,79.6,64.7,52.6,-99.9,-99.9,-99.9,0,0,100,29.92,29.85,13,2,13,0.02
2013-5-30,85.8,65.5,44.7,-99.9,-99.9,-99.9,0,0,100,29.98,29.89,12,2,12,0.00
2013-5-31,90.9,68.9,41.7,-99.9,-99.9,-99.9,0,0,100,29.99,29.92,14,1,14,0.00
2013-6-1,99.4,73.7,48.1,-99.9,-99.9,-99.9,0,0,100,29.92,29.80,10,1,10,0.00
2013-6-2,98.1,75.6,50.0,-99.9,-99.9,-99.9,0,0,100,29.80,29.68,12,1,13,0.00
2013-6-3,97.1,74.8,50.8,-99.9,-99.9,-99.9,0,0,100,29.80,29.70,13,1,13,0.00
2013-6-4,92.1,72.0,54.0,-99.9,-99.9,-99.9,0,0,100,29.89,29.79,12,2,12,0.00
2013-6-5,91.3,72.5,52.4,-99.9,-99.9,-99.9,0,0,100,29.94,29.87,11,1,12,0.00
2013-6-6,95.2,75.5,54.3,-99.9,-99.9,-99.9,0,0,100,29.90,29.83,10,1,11,0.00
2013-6-7,105.7,81.2,57.8,-99.9,-99.9,-99.9,0,0,100,29.87,29.77,12,1,13,0.00
2013-6-8,109.0,85.9,60.3,-99.9,-99.9,-99.9,0,0,100,29.79,29.70,12,1,14,0.00
2013-6-9,94.7,77.1,64.7,-99.9,-99.9,-99.9,0,0,100,29.84,29.73,18,3,18,0.00
2013-6-10,73.3,63.2,53.5,-99.9,-99.9,-99.9,0,0,100,29.94,29.77,12,2,13,0.03
2013-6-11,87.7,67.6,46.5,-99.9,-99.9,-99.9,0,0,100,29.96,29.88,16,2,16,0.00
2013-6-12,89.5,68.9,47.8,-99.9,-99.9,-99.9,0,0,100,29.94,29.87,16,2,16,0.00
2013-6-13,86.1,66.5,43.6,-99.9,-99.9,-99.9,0,0,100,30.05,29.92,14,1,14,0.00
2013-6-14,91.5,67.7,41.9,-99.9,-99.9,-99.9,0,0,100,29.99,29.83,13,1,13,0.00
2013-6-15,94.2,72.0,51.2,-99.9,-99.9,-99.9,0,0,100,29.94,29.81,15,2,15,0.00
2013-6-16,93.7,72.5,49.0,-99.9,-99.9,-99.9,0,0,100,30.04,29.93,12,2,13,0.00
2013-6-17,93.6,71.1,47.3,-99.9,-99.9,-99.9,0,0,100,30.04,29.96,15,2,15,0.00
2013-6-18,78.5,64.9,48.7,-99.9,-99.9,-99.9,0,0,100,29.98,29.89,18,3,18,0.00
2013-6-19,80.5,62.8,44.8,-99.9,-99.9,-99.9,0,0,100,30.01,29.93,14,2,14,0.00
2013-6-20,87.1,65.7,43.5,-99.9,-99.9,-99.9,0,0,100,29.98,29.92,15,2,15,0.00
2013-6-21,91.2,68.9,43.9,-99.9,-99.9,-99.9,0,0,100,29.95,29.90,13,2,13,0.00
2013-6-22,94.3,71.6,46.1,-99.9,-99.9,-99.9,0,0,100,29.92,29.82,14,1,14,0.00
2013-6-23,77.1,65.9,52.1,-99.9,-99.9,-99.9,0,0,100,29.85,29.76,14,3,14,0.00
2013-6-24,63.4,60.5,57.8,-99.9,-99.9,-99.9,0,0,100,29.93,29.77,11,2,11,0.73
2013-6-25,69.5,63.4,57.8,-99.9,-99.9,-99.9,0,0,100,30.00,29.89,14,1,14,0.67
2013-6-26,88.0,73.2,59.1,-99.9,-99.9,-99.9,0,0,100,30.05,29.97,14,1,14,0.00
2013-6-27,96.8,78.0,60.5,-99.9,-99.9,-99.9,0,0,100,30.09,30.02,11,2,11,0.00
2013-6-28,101.3,81.9,60.4,-99.9,-99.9,-99.9,0,0,100,30.05,29.91,11,2,11,0.00
2013-6-29,105.7,84.8,62.6,-99.9,-99.9,-99.9,0,0,100,29.95,29.83,12,2,12,0.00
2013-6-30,106.2,84.5,62.1,-99.9,-99.9,-99.9,0,0,100,29.86,29.78,11,2,11,0.00
2013-7-1,107.0,85.3,64.0,-99.9,-99.9,-99.9,0,0,100,29.88,29.80,10,1,10,0.00
2013-7-2,104.9,85.0,70.7,-99.9,-99.9,-99.9,0,0,100,29.91,29.82,10,2,15,0.00
2013-7-3,106.6,86.6,67.6,-99.9,-99.9,-99.9,0,0,100,29.92,29.77,10,1,10,0.00
2013-7-4,104.3,86.0,68.0,-99.9,-99.9,-99.9,0,0,100,29.80,29.67,11,1,12,0.00
2013-7-5,96.8,79.6,60.2,-99.9,-99.9,-99.9,0,0,100,29.74,29.66,16,2,16,0.00
2013-7-6,96.6,73.8,51.8,-99.9,-99.9,-99.9,0,0,100,29.77,29.71,14,1,15,0.00
2013-7-7,98.9,76.0,51.6,-99.9,-99.9,-99.9,0,0,100,29.84,29.76,12,1,12,0.00
2013-7-8,99.8,77.1,55.2,-99.9,-99.9,-99.9,0,0,100,29.97,29.83,12,2,12,0.00
2013-7-9,104.4,77.5,52.1,-99.9,-99.9,-99.9,0,0,100,30.02,29.95,11,1,11,0.00
2013-7-10,105.3,79.2,54.9,-99.9,-99.9,-99.9,0,0,100,29.96,29.87,18,2,18,0.00
2013-7-11,99.8,77.4,57.2,-99.9,-99.9,-99.9,0,0,100,29.91,29.84,13,3,14,0.00
2013-7-12,97.5,74.9,48.5,-99.9,-99.9,-99.9,0,0,100,29.91,29.85,13,2,16,0.00
2013-7-13,97.9,75.6,49.3,-99.9,-99.9,-99.9,0,0,100,29.94,29.88,16,2,16,0.00
2013-7-14,97.8,76.1,51.5,-99.9,-99.9,-99.9,0,0,100,29.95,29.87,12,1,12,0.00
2013-7-15,95.5,74.5,54.7,-99.9,-99.9,-99.9,0,0,100,29.89,29.79,12,1,13,0.00
2013-7-16,88.2,71.0,52.0,-99.9,-99.9,-99.9,0,0,100,29.98,29.81,12,2,12,0.00
2013-7-17,93.5,70.5,45.3,-99.9,-99.9,-99.9,0,0,100,30.04,29.98,10,1,11,0.00
2013-7-18,98.2,74.6,50.0,-99.9,-99.9,-99.9,0,0,100,30.03,29.92,14,1,14,0.00
2013-7-19,101.1,77.9,54.2,-99.9,-99.9,-99.9,0,0,100,29.93,29.81,11,1,11,0.00
2013-7-20,102.4,81.4,57.7,-99.9,-99.9,-99.9,0,0,100,29.84,29.72,11,1,11,0.00
2013-7-21,101.8,83.0,61.8,-99.9,-99.9,-99.9,0,0,100,29.88,29.75,14,2,14,0.00
2013-7-22,96.8,78.4,57.8,-99.9,-99.9,-99.9,0,0,100,29.98,29.87,12,1,12,0.00
2013-7-23,95.8,78.4,62.2,-99.9,-99.9,-99.9,0,0,100,30.00,29.88,14,2,16,0.00
2013-7-24,100.3,80.5,60.0,-99.9,-99.9,-99.9,0,0,100,29.96,29.90,11,1,11,0.00
2013-7-25,103.8,84.8,66.6,-99.9,-99.9,-99.9,0,0,100,29.98,29.91,12,2,12,0.00
2013-7-26,101.1,84.6,67.5,-99.9,-99.9,-99.9,0,0,100,30.05,29.96,9,2,12,0.00
2013-7-27,98.5,80.4,61.6,-99.9,-99.9,-99.9,0,0,100,29.99,29.83,12,2,13,0.00
2013-7-28,98.5,78.5,57.8,-99.9,-99.9,-99.9,0,0,100,29.87,29.76,13,2,17,0.00
2013-7-29,89.9,71.7,52.4,-99.9,-99.9,-99.9,0,0,100,29.97,29.80,11,2,15,0.00
2013-7-30,94.9,71.4,48.7,-99.9,-99.9,-99.9,0,0,100,30.05,29.97,12,1,12,0.00
2013-7-31,95.3,73.1,52.3,-99.9,-99.9,-99.9,0,0,100,30.02,29.94,15,2,15,0.00
2013-8-1,89.6,70.2,48.1,-99.9,-99.9,-99.9,0,0,100,30.01,29.93,14,2,14,0.00
2013-8-2,93.8,70.7,45.8,-99.9,-99.9,-99.9,0,0,100,29.95,29.88,13,1,13,0.00
2013-8-3,96.3,72.5,48.2,-99.9,-99.9,-99.9,0,0,100,29.94,29.89,12,1,12,0.00
2013-8-4,95.1,72.3,49.2,-99.9,-99.9,-99.9,0,0,100,29.97,29.91,12,1,12,0.00
2013-8-5,95.0,71.7,48.6,-99.9,-99.9,-99.9,0,0,100,29.98,29.92,11,1,13,0.00
2013-8-6,92.6,71.4,48.7,-99.9,-99.9,-99.9,0,0,100,29.98,29.93,12,1,12,0.00
2013-8-7,84.3,69.2,54.2,-99.9,-99.9,-99.9,0,0,100,30.05,29.98,16,2,16,0.00
2013-8-8,86.7,69.2,53.5,-99.9,-99.9,-99.9,0,0,100,30.01,29.91,11,2,11,0.00
2013-8-9,88.5,69.1,52.1,-99.9,-99.9,-99.9,0,0,100,29.96,29.88,18,2,18,0.00
2013-8-10,89.0,69.8,49.3,-99.9,-99.9,-99.9,0,0,100,30.01,29.95,12,1,12,0.00
2013-8-11,92.3,71.7,50.5,-99.9,-99.9,-99.9,0,0,100,30.01,29.92,11,1,11,0.00
2013-8-12,94.6,74.3,58.6,-99.9,-99.9,-99.9,0,0,100,29.99,29.93,14,2,14,0.00
2013-8-13,96.8,73.1,48.7,-99.9,-99.9,-99.9,0,0,100,29.98,29.92,11,1,12,0.00
2013-8-14,98.0,74.5,51.6,-99.9,-99.9,-99.9,0,0,100,29.96,29.90,13,1,13,0.00
2013-8-15,99.1,75.6,52.0,-99.9,-99.9,-99.9,0,0,100,29.96,29.90,15,1,16,0.00
2013-8-16,102.2,77.7,56.5,-99.9,-99.9,-99.9,0,0,100,29.99,29.94,13,2,13,0.00
2013-8-17,100.8,78.2,59.9,-99.9,-99.9,-99.9,0,0,100,29.98,29.86,13,2,13,0.00
2013-8-18,100.3,80.7,59.9,-99.9,-99.9,-99.9,0,0,100,29.92,29.79,13,1,14,0.00
2013-8-19,96.1,79.9,67.6,-99.9,-99.9,-99.9,0,0,100,29.94,29.83,7,1,9,0.00
2013-8-20,100.3,81.4,63.7,-99.9,-99.9,-99.9,0,0,100,29.90,29.81,11,1,12,0.00
2013-8-21,93.4,77.6,60.8,-99.9,-99.9,-99.9,0,0,100,29.92,29.85,13,2,14,0.00
2013-8-22,95.1,74.9,55.0,-99.9,-99.9,-99.9,0,0,100,29.92,29.86,15,1,15,0.00
2013-8-23,93.6,70.4,49.2,-99.9,-99.9,-99.9,0,0,100,29.89,29.80,13,1,14,0.00
2013-8-24,91.8,72.5,54.4,-99.9,-99.9,-99.9,0,0,100,29.88,29.80,17,3,18,0.00
2013-8-25,87.5,69.4,54.5,-99.9,-99.9,-99.9,0,0,100,29.94,29.86,15,2,15,0.01
2013-8-26,92.1,71.2,55.9,-99.9,-99.9,-99.9,0,0,100,29.98,29.90,12,2,12,0.00
2013-8-27,95.8,72.1,48.4,-99.9,-99.9,-99.9,0,0,100,29.92,29.82,14,1,14,0.00
2013-8-28,97.8,74.1,52.7,-99.9,-99.9,-99.9,0,0,100,29.93,29.82,14,1,14,0.00
2013-8-29,98.3,73.3,52.0,-99.9,-99.9,-99.9,0,0,100,30.04,29.92,14,1,14,0.00
2013-8-30,101.5,73.4,49.2,-99.9,-99.9,-99.9,0,0,100,30.03,29.94,11,1,11,0.00
2013-8-31,102.6,75.1,49.9,-99.9,-99.9,-99.9,0,0,100,29.97,29.89,15,2,15,0.00
2013-9-1,95.4,77.6,61.8,-99.9,-99.9,-99.9,0,0,100,29.93,29.88,13,2,14,0.00
2013-9-2,74.8,67.6,62.6,-99.9,-99.9,-99.9,0,0,100,29.98,29.89,8,1,9,1.03
2013-9-3,85.8,71.4,60.0,-99.9,-99.9,-99.9,0,0,100,29.99,29.91,12,1,12,0.00
2013-9-4,90.0,71.3,56.0,-99.9,-99.9,-99.9,0,0,100,30.01,29.93,7,1,11,0.00
2013-9-5,90.1,69.2,53.1,-99.9,-99.9,-99.9,0,0,100,29.98,29.91,15,2,16,0.00
2013-9-6,96.3,69.9,49.5,-99.9,-99.9,-99.9,0,0,100,29.98,29.88,9,1,10,0.00
2013-9-7,100.3,74.5,53.3,-99.9,-99.9,-99.9,0,0,100,29.91,29.84,14,1,14,0.00
2013-9-8,102.6,76.7,56.3,-99.9,-99.9,-99.9,0,0,100,29.88,29.78,13,1,13,0.00
2013-9-9,102.3,75.7,53.0,-99.9,-99.9,-99.9,0,0,100,29.81,29.71,11,1,12,0.00
2013-9-10,99.0,77.2,59.0,-99.9,-99.9,-99.9,0,0,100,29.87,29.73,14,2,14,0.00
2013-9-11,90.5,68.6,53.7,-99.9,-99.9,-99.9,0,0,100,29.96,29.86,13,1,13,0.00
2013-9-12,89.5,69.2,51.5,-99.9,-99.9,-99.9,0,0,100,29.95,29.87,15,1,15,0.00
2013-9-13,93.6,72.8,55.6,-99.9,-99.9,-99.9,0,0,100,29.90,29.75,13,1,13,0.00
2013-9-14,96.8,73.4,56.4,-99.9,-99.9,-99.9,0,0,100,29.79,29.72,12,1,12,0.00
2013-9-15,92.3,69.5,52.7,-99.9,-99.9,-99.9,0,0,100,29.84,29.73,14,2,15,0.00
2013-9-16,93.0,68.9,47.8,-99.9,-99.9,-99.9,0,0,100,29.87,29.78,15,2,15,0.00
2013-9-17,81.2,64.6,51.1,-99.9,-99.9,-99.9,0,0,100,29.88,29.76,16,2,20,0.00
2013-9-18,87.9,63.2,42.9,-99.9,-99.9,-99.9,0,0,100,29.88,29.81,15,1,15,0.00
2013-9-19,92.9,66.1,44.2,-99.9,-99.9,-99.9,0,0,100,29.86,29.78,11,1,12,0.00
2013-9-20,88.8,67.3,47.6,-99.9,-99.9,-99.9,0,0,100,29.85,29.75,18,3,18,0.00
2013-9-21,67.5,58.0,50.9,-99.9,-99.9,-99.9,0,0,100,29.88,29.79,13,2,16,0.52
2013-9-22,74.2,57.4,43.5,-99.9,-99.9,-99.9,0,0,100,29.98,29.88,11,1,11,0.00
2013-9-23,82.2,61.5,44.3,-99.9,-99.9,-99.9,0,0,100,29.99,29.94,11,1,12,0.01
2013-9-24,80.3,63.9,52.5,-99.9,-99.9,-99.9,0,0,100,29.95,29.83,18,3,18,0.00
2013-9-25,73.7,56.9,45.3,-99.9,-99.9,-99.9,0,0,100,29.88,29.79,14,1,14,0.00
2013-9-26,77.3,54.8,35.5,-99.9,-99.9,-99.9,0,0,100,29.97,29.78,18,2,18,0.00
2013-9-27,81.2,57.6,38.2,-99.9,-99.9,-99.9,0,0,100,30.06,29.96,11,1,11,0.00
2013-9-28,85.3,62.5,44.2,-99.9,-99.9,-99.9,0,0,100,30.08,29.99,14,2,14,0.00
2013-9-29,78.0,61.9,48.0,-99.9,-99.9,-99.9,0,0,100,30.08,30.01,20,2,20,0.00
2013-9-30,77.6,63.9,54.4,-99.9,-99.9,-99.9,0,0,100,30.07,29.95,14,2,16,0.00
2013-10-1,81.6,63.8,47.5,-99.9,-99.9,-99.9,0,0,100,29.98,29.92,11,2,11,0.00
2013-10-2,82.3,58.7,43.5,-99.9,-99.9,-99.9,0,0,100,29.96,29.89,12,1,12,0.00
2013-10-3,79.1,58.0,34.1,-99.9,-99.9,-99.9,0,0,100,30.02,29.89,22,3,23,0.00
2013-10-4,82.1,66.4,50.2,-99.9,-99.9,-99.9,0,0,100,30.11,29.97,24,4,25,0.00
2013-10-5,88.1,57.8,34.3,-99.9,-99.9,-99.9,0,0,100,30.19,30.11,11,1,12,0.00
2013-10-6,89.6,59.8,37.3,-99.9,-99.9,-99.9,0,0,100,30.15,30.02,10,1,10,0.00
2013-10-7,89.5,59.7,37.5,-99.9,-99.9,-99.9,0,0,100,30.02,29.88,9,0,11,0.00
2013-10-8,82.6,54.8,36.3,-99.9,-99.9,-99.9,0,0,100,29.90,29.67,10,1,10,0.00
2013-10-9,76.1,56.0,38.7,-99.9,-99.9,-99.9,0,0,100,29.75,29.55,14,1,14,0.00
2013-10-10,73.2,54.4,40.7,-99.9,-99.9,-99.9,0,0,100,30.00,29.75,14,2,14,0.00
2013-10-11,81.2,56.4,39.4,-99.9,-99.9,-99.9,0,0,100,30.04,29.97,13,1,14,0.00
2013-10-12,79.9,55.3,36.1,-99.9,-99.9,-99.9,0,0,100,29.99,29.88,16,1,16,0.00
2013-10-13,77.9,56.2,38.7,-99.9,-99.9,-99.9,0,0,100,30.05,29.88,15,1,15,0.01
2013-10-14,80.9,53.9,34.7,-99.9,-99.9,-99.9,0,0,100,30.11,30.02,12,1,12,0.00
2013-10-15,84.0,55.3,33.2,-99.9,-99.9,-99.9,0,0,100,30.04,29.96,11,1,12,0.00
2013-10-16,84.1,57.9,36.0,-99.9,-99.9,-99.9,0,0,100,30.11,30.00,15,2,15,0.00
2013-10-17,86.8,55.7,35.7,-99.9,-99.9,-99.9,0,0,100,30.08,29.99,11,1,11,0.00
2013-10-18,85.0,55.8,34.8,-99.9,-99.9,-99.9,0,0,100,30.07,29.99,10,1,10,0.00
2013-10-19,90.0,56.8,35.4,-99.9,-99.9,-99.9,0,0,100,30.08,30.03,10,1,11,0.00
2013-10-20,87.0,56.4,36.8,-99.9,-99.9,-99.9,0,0,100,30.05,29.93,10,1,10,0.00
2013-10-21,87.3,58.2,38.9,-99.9,-99.9,-99.9,0,0,100,30.01,29.94,9,1,9,0.00
2013-10-22,90.9,57.5,36.0,-99.9,-99.9,-99.9,0,0,100,30.02,29.95,9,1,9,0.00
2013-10-23,90.6,56.5,34.7,-99.9,-99.9,-99.9,0,0,100,29.97,29.89,12,0,12,0.00
2013-10-24,84.3,50.6,35.5,-99.9,-99.9,-99.9,0,0,100,30.07,29.94,11,1,11,0.00
2013-10-25,83.2,55.8,33.9,-99.9,-99.9,-99.9,0,0,100,30.15,30.06,9,1,9,0.00
2013-10-26,84.4,53.9,36.5,-99.9,-99.9,-99.9,0,0,100,30.15,30.03,8,1,9,0.00
2013-10-27,80.4,55.5,34.1,-99.9,-99.9,-99.9,0,0,100,30.04,29.59,21,4,21,0.19
2013-10-28,57.2,50.2,39.4,-99.9,-99.9,-99.9,0,0,100,29.85,29.59,11,2,13,0.00
2013-10-29,59.4,49.3,38.0,-99.9,-99.9,-99.9,0,0,100,30.04,29.84,10,1,11,0.01
2013-10-30,70.4,48.7,34.4,-99.9,-99.9,-99.9,0,0,100,30.12,30.03,11,1,11,0.01
2013-10-31,71.3,50.9,32.6,-99.9,-99.9,-99.9,0,0,100,30.16,30.09,12,1,12,0.00
2013-11-1,81.3,52.7,34.0,-99.9,-99.9,-99.9,0,0,100,30.17,30.05,10,1,10,0.00
2013-11-2,79.7,53.9,35.9,-99.9,-99.9,-99.9,0,0,100,30.05,29.90,11,2,12,0.00
2013-11-3,67.5,47.2,30.5,-99.9,-99.9,-99.9,0,0,100,29.99,29.87,12,1,12,0.00
2013-11-4,71.5,45.2,27.3,-99.9,-99.9,-99.9,0,0,100,30.07,29.86,16,2,19,0.00
2013-11-5,71.9,49.1,31.8,-99.9,-99.9,-99.9,0,0,100,30.25,30.05,11,1,11,0.00
2013-11-6,73.6,53.4,34.1,-99.9,-99.9,-99.9,0,0,100,30.26,30.19,9,1,9,0.00
2013-11-7,77.7,55.3,41.6,-99.9,-99.9,-99.9,0,0,100,30.20,30.08,11,1,12,0.00
2013-11-8,82.1,52.3,33.9,-99.9,-99.9,-99.9,0,0,100,30.10,29.98,11,1,11,0.00
2013-11-9,80.8,55.1,33.9,-99.9,-99.9,-99.9,0,0,100,30.06,30.00,8,1,11,0.00
2013-11-10,81.0,52.8,35.1,-99.9,-99.9,-99.9,0,0,100,30.12,30.04,11,1,13,0.00
2013-11-11,77.3,52.3,31.6,-99.9,-99.9,-99.9,0,0,100,30.20,30.08,8,1,9,0.00
2013-11-12,73.4,53.9,39.0,-99.9,-99.9,-99.9,0,0,100,30.26,30.14,10,1,11,0.00
2013-11-13,80.3,51.0,33.9,-99.9,-99.9,-99.9,0,0,100,30.24,30.08,8,1,9,0.00
2013-11-14,75.8,51.4,35.0,-99.9,-99.9,-99.9,0,0,100,30.11,29.84,10,1,10,0.00
2013-11-15,71.3,44.6,31.2,-99.9,-99.9,-99.9,0,0,100,29.84,29.71,11,1,11,0.00
2013-11-16,68.5,46.1,32.4,-99.9,-99.9,-99.9,0,0,100,29.93,29.74,11,2,12,0.00
2013-11-17,71.5,46.0,28.1,-99.9,-99.9,-99.9,0,0,100,30.09,29.92,9,1,10,0.00
2013-11-18,65.1,46.6,32.3,-99.9,-99.9,-99.9,0,0,100,30.12,30.05,10,1,12,0.00
2013-11-19,58.2,52.6,45.2,-99.9,-99.9,-99.9,0,0,100,30.09,29.96,6,1,6,0.51
2013-11-20,54.7,52.3,50.0,-99.9,-99.9,-99.9,0,0,100,29.96,29.85,8,1,9,0.80
2013-11-21,60.6,52.8,46.0,-99.9,-99.9,-99.9,0,0,100,30.03,29.87,27,5,28,0.13
2013-11-22,69.3,50.7,30.7,-99.9,-99.9,-99.9,0,0,100,30.05,29.97,18,4,22,0.00
2013-11-23,69.0,45.8,29.9,-99.9,-99.9,-99.9,0,0,100,30.12,29.99,14,2,15,0.00
2013-11-24,66.8,45.6,29.4,-99.9,-99.9,-99.9,0,0,100,30.25,30.12,12,2,12,0.00
2013-11-25,69.3,45.2,30.2,-99.9,-99.9,-99.9,0,0,100,30.31,30.24,9,1,9,0.00
2013-11-26,68.2,45.6,30.7,-99.9,-99.9,-99.9,0,0,100,30.27,30.07,7,1,7,0.01
2013-11-27,70.0,47.0,33.7,-99.9,-99.9,-99.9,0,0,100,30.06,29.89,8,1,9,0.00
2013-11-28,73.8,51.6,36.7,-99.9,-99.9,-99.9,0,0,100,30.10,29.90,8,2,10,0.00
2013-11-29,73.5,48.1,31.6,-99.9,-99.9,-99.9,0,0,100,30.23,30.09,9,1,10,0.00
2013-11-30,72.0,47.5,34.6,-99.9,-99.9,-99.9,0,0,100,30.27,30.19,8,1,10,0.00
2013-12-1,71.6,47.3,30.9,-99.9,-99.9,-99.9,0,0,100,30.32,30.23,5,1,11,0.00
2013-12-2,68.8,44.8,31.1,-99.9,-99.9,-99.9,0,0,100,30.23,29.91,14,1,14,0.00
2013-12-3,52.7,43.7,25.2,-99.9,-99.9,-99.9,0,0,100,29.89,29.79,10,3,19,0.03
2013-12-4,54.9,32.4,19.6,-99.9,-99.9,-99.9,0,0,100,30.04,29.88,10,1,11,0.01
2013-12-5,55.3,29.0,15.3,-99.9,-99.9,-99.9,0,0,100,30.13,30.02,9,1,9,0.00
2013-12-6,47.8,32.2,18.1,-99.9,-99.9,-99.9,0,0,100,30.15,29.87,18,3,18,0.04
2013-12-7,42.2,33.1,24.8,-99.9,-99.9,-99.9,0,0,100,30.19,29.85,17,2,17,0.38
2013-12-8,47.2,28.7,19.4,-99.9,-99.9,-99.9,0,0,100,30.26,30.17,11,2,11,0.01
2013-12-9,51.6,28.3,14.2,-99.9,-99.9,-99.9,0,0,100,30.41,30.23,9,1,9,0.01
2013-12-10,58.6,34.8,18.6,-99.9,-99.9,-99.9,0,0,100,30.40,30.18,10,1,10,0.00
2013-12-11,62.7,36.0,21.2,-99.9,-99.9,-99.9,0,0,100,30.23,30.18,11,1,11,0.00
2013-12-12,70.4,40.3,23.0,-99.9,-99.9,-99.9,0,0,100,30.25,30.15,11,1,12,0.00
2013-12-13,67.9,38.3,22.5,-99.9,-99.9,-99.9,0,0,100,30.31,30.21,10,1,10,0.00
2013-12-14,68.0,39.3,23.5,-99.9,-99.9,-99.9,0,0,100,30.39,30.30,8,1,9,0.00
2013-12-15,71.7,40.7,24.1,-99.9,-99.9,-99.9,0,0,100,30.38,30.26,8,1,8,0.01
2013-12-16,75.4,43.5,26.9,-99.9,-99.9,-99.9,0,0,100,30.26,30.16,7,1,7,0.00
2013-12-17,73.6,45.2,29.0,-99.9,-99.9,-99.9,0,0,100,30.20,30.05,7,0,7,0.00
2013-12-18,68.2,46.9,33.9,-99.9,-99.9,-99.9,0,0,100,30.05,29.71,9,1,9,0.00
2013-12-19,62.0,43.9,29.6,-99.9,-99.9,-99.9,0,0,100,29.88,29.66,16,2,16,0.01
2013-12-20,65.2,38.2,22.1,-99.9,-99.9,-99.9,0,0,100,30.00,29.87,10,1,11,0.00
2013-12-21,65.8,39.3,24.8,-99.9,-99.9,-99.9,0,0,100,30.10,29.97,10,1,10,0.00
2013-12-22,65.0,39.9,24.9,-99.9,-99.9,-99.9,0,0,100,30.30,30.09,8,1,10,0.00
2013-12-23,72.0,42.2,27.2,-99.9,-99.9,-99.9,0,0,100,30.39,30.29,8,1,9,0.00
2013-12-24,72.8,42.4,28.0,-99.9,-99.9,-99.9,0,0,100,30.33,30.21,8,1,9,0.00
2013-12-25,70.0,40.5,24.5,-99.9,-99.9,-99.9,0,0,100,30.30,30.23,8,1,8,0.01
2013-12-26,76.7,41.9,24.4,-99.9,-99.9,-99.9,0,0,100,30.27,30.20,8,0,8,0.00
2013-12-27,67.3,40.9,24.8,-99.9,-99.9,-99.9,0,0,100,30.26,30.12,12,0,12,0.00
2013-12-28,74.8,42.5,22.6,-99.9,-99.9,-99.9,0,0,100,30.13,30.03,13,1,13,0.00
2013-12-29,65.3,40.2,22.6,-99.9,-99.9,-99.9,0,0,100,30.21,30.09,7,1,12,0.00
2013-12-30,72.8,42.4,26.3,-99.9,-99.9,-99.9,0,0,100,30.26,30.19,9,1,9,0.00
2013-12-31,69.6,42.0,28.4,-99.9,-99.9,-99.9,0,0,100,30.27,30.16,8,0,8,0.00
2014-1-1,71.5,41.9,26.4,-99.9,-99.9,-99.9,0,0,100,30.21,30.14,8,0,8,0.00
2014-1-2,76.5,43.7,27.6,-99.9,-99.9,-99.9,0,0,100,30.19,29.79,8,0,8,0.00